createdAt,value
2023-02-03T00:00:08.150Z,24.85
2023-02-03T00:00:18.227Z,24.86
2023-02-03T00:00:28.389Z,24.85
2023-02-03T00:00:38.320Z,24.85
2023-02-03T00:00:48.329Z,24.85
2023-02-03T00:00:58.344Z,24.86
2023-02-03T00:01:08.362Z,24.86
2023-02-03T00:01:18.404Z,24.88
2023-02-03T00:01:28.425Z,24.88
2023-02-03T00:01:38.541Z,24.88
2023-02-03T00:01:48.621Z,24.88
2023-02-03T00:01:58.863Z,24.88
2023-02-03T00:02:08.822Z,24.88
2023-02-03T00:02:18.893Z,24.88
2023-02-03T00:02:29.183Z,24.88
2023-02-03T00:02:39.287Z,24.88
2023-02-03T00:02:49.250Z,24.89
2023-02-03T00:02:59.554Z,24.90
2023-02-03T00:03:09.633Z,24.90
2023-02-03T00:03:19.696Z,24.91
2023-02-03T00:03:29.712Z,24.92
2023-02-03T00:03:39.723Z,24.91
2023-02-03T00:03:49.752Z,24.91
2023-02-03T00:03:59.753Z,24.92
2023-02-03T00:04:09.771Z,24.92
2023-02-03T00:04:19.771Z,24.92
2023-02-03T00:04:29.907Z,24.93
2023-02-03T00:04:40.166Z,24.93
2023-02-03T00:04:50.246Z,24.93
2023-02-03T00:05:00.231Z,24.93
2023-02-03T00:05:10.243Z,24.94
2023-02-03T00:05:20.247Z,24.94
2023-02-03T00:05:30.318Z,24.95
2023-02-03T00:05:40.320Z,24.95
2023-02-03T00:05:50.366Z,24.96
2023-02-03T00:06:00.375Z,24.96
2023-02-03T00:06:10.375Z,24.97
2023-02-03T00:06:20.381Z,24.97
2023-02-03T00:06:30.451Z,24.97
2023-02-03T00:06:40.470Z,24.97
2023-02-03T00:06:50.504Z,24.97
2023-02-03T00:07:00.514Z,24.98
2023-02-03T00:07:10.638Z,24.98
2023-02-03T00:07:20.638Z,24.97
2023-02-03T00:07:30.906Z,24.98
2023-02-03T00:07:40.913Z,24.99
2023-02-03T00:07:51.045Z,24.99
2023-02-03T00:08:01.296Z,24.99
2023-02-03T00:08:11.503Z,24.99
2023-02-03T00:08:21.515Z,24.99
2023-02-03T00:08:31.771Z,24.99
2023-02-03T00:08:41.785Z,24.99
2023-02-03T00:08:51.792Z,25.00
2023-02-03T00:09:01.820Z,24.99
2023-02-03T00:09:11.843Z,24.99
2023-02-03T00:09:21.839Z,24.99
2023-02-03T00:09:31.912Z,25.00
2023-02-03T00:09:41.916Z,25.00
2023-02-03T00:09:51.922Z,25.00
2023-02-03T00:10:01.929Z,25.01
2023-02-03T00:10:11.959Z,25.01
2023-02-03T00:10:21.976Z,25.01
2023-02-03T00:10:31.960Z,25.00
2023-02-03T00:10:42.034Z,25.01
2023-02-03T00:10:52.062Z,25.01
2023-02-03T00:11:02.066Z,25.02
2023-02-03T00:11:12.088Z,25.03
2023-02-03T00:11:22.100Z,25.03
2023-02-03T00:11:32.125Z,25.03
2023-02-03T00:11:42.159Z,25.03
2023-02-03T00:11:52.168Z,25.03
2023-02-03T00:12:02.203Z,25.03
2023-02-03T00:12:12.187Z,25.03
2023-02-03T00:12:22.313Z,25.03
2023-02-03T00:12:32.574Z,25.04
2023-02-03T00:12:42.618Z,25.04
2023-02-03T00:12:52.612Z,25.04
2023-02-03T00:13:02.613Z,25.04
2023-02-03T00:13:12.618Z,25.04
2023-02-03T00:13:22.622Z,25.04
2023-02-03T00:13:32.637Z,25.06
2023-02-03T00:13:42.658Z,25.05
2023-02-03T00:13:52.655Z,25.06
2023-02-03T00:14:02.673Z,25.06
2023-02-03T00:14:12.687Z,25.05
2023-02-03T00:14:22.718Z,25.05
2023-02-03T00:14:32.740Z,25.05
2023-02-03T00:14:42.742Z,25.06
2023-02-03T00:14:52.752Z,25.05
2023-02-03T00:15:02.759Z,25.05
2023-02-03T00:15:12.768Z,25.05
2023-02-03T00:15:22.776Z,25.06
2023-02-03T00:15:32.809Z,25.06
2023-02-03T00:15:42.821Z,25.06
2023-02-03T00:15:52.858Z,25.06
2023-02-03T00:16:02.987Z,25.07
2023-02-03T00:16:12.929Z,25.07
2023-02-03T00:16:23.040Z,25.07
2023-02-03T00:16:33.400Z,25.07
2023-02-03T00:16:43.571Z,25.07
2023-02-03T00:16:53.463Z,25.08
2023-02-03T00:17:03.720Z,25.07
2023-02-03T00:17:13.725Z,25.06
2023-02-03T00:17:23.770Z,25.06
2023-02-03T00:17:33.771Z,25.06
2023-02-03T00:17:43.862Z,25.07
2023-02-03T00:17:53.870Z,25.06
2023-02-03T00:18:03.885Z,25.07
2023-02-03T00:18:13.912Z,25.07
2023-02-03T00:18:23.939Z,25.07
2023-02-03T00:18:33.965Z,25.07
2023-02-03T00:18:43.975Z,25.08
2023-02-03T00:18:53.989Z,25.08
2023-02-03T00:19:04.119Z,25.09
2023-02-03T00:19:15.946Z,25.08
2023-02-03T00:19:24.193Z,25.06
2023-02-03T00:19:34.206Z,25.07
2023-02-03T00:19:44.201Z,25.07
2023-02-03T00:19:54.345Z,25.08
2023-02-03T00:20:04.355Z,25.10
2023-02-03T00:20:14.365Z,25.10
2023-02-03T00:20:24.876Z,25.10
2023-02-03T00:20:34.707Z,25.10
2023-02-03T00:20:44.708Z,25.10
2023-02-03T00:20:54.707Z,25.10
2023-02-03T00:21:04.731Z,25.10
2023-02-03T00:21:14.732Z,25.11
2023-02-03T00:21:24.861Z,25.11
2023-02-03T00:21:34.878Z,25.11
2023-02-03T00:21:44.921Z,25.12
2023-02-03T00:21:54.921Z,25.12
2023-02-03T00:22:05.048Z,25.12
2023-02-03T00:22:15.195Z,25.12
2023-02-03T00:22:25.202Z,25.13
2023-02-03T00:22:35.223Z,25.13
2023-02-03T00:22:45.226Z,25.13
2023-02-03T00:22:55.236Z,25.12
2023-02-03T00:23:05.257Z,25.13
2023-02-03T00:23:15.310Z,25.13
2023-02-03T00:23:25.318Z,25.14
2023-02-03T00:23:35.322Z,25.14
2023-02-03T00:23:45.333Z,25.14
2023-02-03T00:23:55.361Z,25.14
2023-02-03T00:24:05.366Z,25.14
2023-02-03T00:24:15.375Z,25.14
2023-02-03T00:24:25.382Z,25.14
2023-02-03T00:24:35.398Z,25.15
2023-02-03T00:24:45.404Z,25.14
2023-02-03T00:24:55.408Z,25.15
2023-02-03T00:25:05.445Z,25.15
2023-02-03T00:25:15.499Z,25.15
2023-02-03T00:25:25.511Z,25.15
2023-02-03T00:25:35.528Z,25.14
2023-02-03T00:25:45.523Z,25.14
2023-02-03T00:25:55.523Z,25.15
2023-02-03T00:26:05.529Z,25.14
2023-02-03T00:26:15.573Z,25.14
2023-02-03T00:26:25.565Z,25.15
2023-02-03T00:26:35.586Z,25.14
2023-02-03T00:26:45.617Z,25.14
2023-02-03T00:26:55.650Z,25.14
2023-02-03T00:27:05.717Z,25.15
2023-02-03T00:27:15.700Z,25.15
2023-02-03T00:27:26.090Z,25.15
2023-02-03T00:27:36.146Z,25.16
2023-02-03T00:27:46.181Z,25.15
2023-02-03T00:27:56.270Z,25.15
2023-02-03T00:28:06.388Z,25.14
2023-02-03T00:28:16.437Z,25.15
2023-02-03T00:28:26.435Z,25.14
2023-02-03T00:28:36.432Z,25.15
2023-02-03T00:28:46.450Z,25.15
2023-02-03T00:28:56.500Z,25.14
2023-02-03T00:29:06.523Z,25.14
2023-02-03T00:29:16.528Z,25.15
2023-02-03T00:29:26.644Z,25.16
2023-02-03T00:29:36.658Z,25.16
2023-02-03T00:29:46.668Z,25.16
2023-02-03T00:29:56.669Z,25.15
2023-02-03T00:30:06.693Z,25.16
2023-02-03T00:30:16.968Z,25.16
2023-02-03T00:30:27.437Z,25.15
2023-02-03T00:30:37.038Z,25.16
2023-02-03T00:30:47.044Z,25.16
2023-02-03T00:30:57.088Z,25.17
2023-02-03T00:31:07.118Z,25.17
2023-02-03T00:31:17.321Z,25.17
2023-02-03T00:31:27.381Z,25.17
2023-02-03T00:31:37.457Z,25.17
2023-02-03T00:31:47.481Z,25.18
2023-02-03T00:31:57.464Z,25.17
2023-02-03T00:32:07.653Z,25.17
2023-02-03T00:32:17.651Z,25.18
2023-02-03T00:32:27.920Z,25.17
2023-02-03T00:32:37.711Z,25.18
2023-02-03T00:32:47.727Z,25.18
2023-02-03T00:32:57.739Z,25.17
2023-02-03T00:33:07.738Z,25.17
2023-02-03T00:33:17.751Z,25.18
2023-02-03T00:33:27.764Z,25.19
2023-02-03T00:33:37.769Z,25.18
2023-02-03T00:33:47.791Z,25.18
2023-02-03T00:33:57.806Z,25.17
2023-02-03T00:34:07.798Z,25.17
2023-02-03T00:34:17.798Z,25.17
2023-02-03T00:34:27.809Z,25.17
2023-02-03T00:34:37.821Z,25.19
2023-02-03T00:34:47.828Z,25.18
2023-02-03T00:34:57.857Z,25.19
2023-02-03T00:35:07.852Z,25.19
2023-02-03T00:35:17.858Z,25.19
2023-02-03T00:35:27.917Z,25.19
2023-02-03T00:35:37.931Z,25.19
2023-02-03T00:35:47.934Z,25.20
2023-02-03T00:35:57.940Z,25.19
2023-02-03T00:36:07.950Z,25.19
2023-02-03T00:36:17.969Z,25.19
2023-02-03T00:36:27.973Z,25.19
2023-02-03T00:36:37.990Z,25.19
2023-02-03T00:36:48.005Z,25.19
2023-02-03T00:36:57.998Z,25.19
2023-02-03T00:37:08.124Z,25.19
2023-02-03T00:37:18.121Z,25.19
2023-02-03T00:37:28.124Z,25.19
2023-02-03T00:37:38.127Z,25.19
2023-02-03T00:37:48.380Z,25.18
2023-02-03T00:37:58.433Z,25.18
2023-02-03T00:38:08.428Z,25.19
2023-02-03T00:38:18.457Z,25.20
2023-02-03T00:38:28.464Z,25.19
2023-02-03T00:38:38.475Z,25.19
2023-02-03T00:38:48.483Z,25.20
2023-02-03T00:38:58.518Z,25.20
2023-02-03T00:39:08.507Z,25.19
2023-02-03T00:39:18.540Z,25.18
2023-02-03T00:39:28.541Z,25.19
2023-02-03T00:39:38.564Z,25.18
2023-02-03T00:39:48.586Z,25.19
2023-02-03T00:39:58.617Z,25.19
2023-02-03T00:40:08.625Z,25.19
2023-02-03T00:40:18.631Z,25.18
2023-02-03T00:40:28.769Z,25.19
2023-02-03T00:40:38.638Z,25.19
2023-02-03T00:40:48.661Z,25.18
2023-02-03T00:40:58.667Z,25.19
2023-02-03T00:41:08.671Z,25.18
2023-02-03T00:41:18.714Z,25.19
2023-02-03T00:41:28.723Z,25.18
2023-02-03T00:41:38.747Z,25.18
2023-02-03T00:41:48.750Z,25.17
2023-02-03T00:41:58.839Z,25.18
2023-02-03T00:42:08.931Z,25.19
2023-02-03T00:42:18.919Z,25.19
2023-02-03T00:42:28.924Z,25.18
2023-02-03T00:42:38.928Z,25.18
2023-02-03T00:42:48.950Z,25.18
2023-02-03T00:42:59.195Z,25.18
2023-02-03T00:43:09.207Z,25.20
2023-02-03T00:43:19.225Z,25.19
2023-02-03T00:43:29.217Z,25.19
2023-02-03T00:43:39.249Z,25.18
2023-02-03T00:43:49.288Z,25.18
2023-02-03T00:43:59.306Z,25.18
2023-02-03T00:44:09.325Z,25.18
2023-02-03T00:44:19.316Z,25.17
2023-02-03T00:44:29.316Z,25.17
2023-02-03T00:44:39.343Z,25.18
2023-02-03T00:44:49.358Z,25.17
2023-02-03T00:44:59.374Z,25.18
2023-02-03T00:45:09.384Z,25.19
2023-02-03T00:45:19.401Z,25.18
2023-02-03T00:45:29.430Z,25.18
2023-02-03T00:45:39.500Z,25.18
2023-02-03T00:45:49.559Z,25.18
2023-02-03T00:45:59.645Z,25.19
2023-02-03T00:46:09.737Z,25.19
2023-02-03T00:46:19.826Z,25.19
2023-02-03T00:46:29.854Z,25.19
2023-02-03T00:46:39.850Z,25.19
2023-02-03T00:46:49.859Z,25.19
2023-02-03T00:47:00.113Z,25.19
2023-02-03T00:47:10.129Z,25.19
2023-02-03T00:47:20.131Z,25.19
2023-02-03T00:47:30.511Z,25.20
2023-02-03T00:47:40.527Z,25.19
2023-02-03T00:47:50.532Z,25.20
2023-02-03T00:48:00.599Z,25.21
2023-02-03T00:48:10.607Z,25.21
2023-02-03T00:48:20.606Z,25.20
2023-02-03T00:48:30.635Z,25.20
2023-02-03T00:48:40.639Z,25.21
2023-02-03T00:48:50.760Z,25.21
2023-02-03T00:49:00.774Z,25.21
2023-02-03T00:49:11.057Z,25.20
2023-02-03T00:49:21.049Z,25.20
2023-02-03T00:49:31.239Z,25.20
2023-02-03T00:49:41.481Z,25.20
2023-02-03T00:49:51.488Z,25.19
2023-02-03T00:50:01.509Z,25.19
2023-02-03T00:50:11.616Z,25.19
2023-02-03T00:50:21.628Z,25.19
2023-02-03T00:50:31.627Z,25.19
2023-02-03T00:50:41.641Z,25.19
2023-02-03T00:50:51.667Z,25.19
2023-02-03T00:51:01.671Z,25.20
2023-02-03T00:51:11.676Z,25.20
2023-02-03T00:51:21.672Z,25.20
2023-02-03T00:51:31.689Z,25.20
2023-02-03T00:51:41.692Z,25.19
2023-02-03T00:51:51.738Z,25.20
2023-02-03T00:52:01.752Z,25.20
2023-02-03T00:52:11.771Z,25.20
2023-02-03T00:52:21.769Z,25.20
2023-02-03T00:52:31.794Z,25.21
2023-02-03T00:52:41.803Z,25.20
2023-02-03T00:52:51.807Z,25.20
2023-02-03T00:53:01.808Z,25.20
2023-02-03T00:53:11.817Z,25.20
2023-02-03T00:53:21.859Z,25.20
2023-02-03T00:53:31.862Z,25.20
2023-02-03T00:53:41.862Z,25.21
2023-02-03T00:53:51.884Z,25.20
2023-02-03T00:54:01.952Z,25.20
2023-02-03T00:54:11.984Z,25.20
2023-02-03T00:54:21.990Z,25.19
2023-02-03T00:54:33.589Z,25.20
2023-02-03T00:54:42.110Z,25.19
2023-02-03T00:54:52.119Z,25.19
2023-02-03T00:55:02.135Z,25.19
2023-02-03T00:55:12.190Z,25.19
2023-02-03T00:55:22.189Z,25.19
2023-02-03T00:55:32.234Z,25.19
2023-02-03T00:55:42.245Z,25.19
2023-02-03T00:55:52.269Z,25.17
2023-02-03T00:56:02.313Z,25.17
2023-02-03T00:56:12.359Z,25.17
2023-02-03T00:56:22.345Z,25.17
2023-02-03T00:56:32.351Z,25.17
2023-02-03T00:56:42.359Z,25.17
2023-02-03T00:56:52.367Z,25.16
2023-02-03T00:57:02.360Z,25.16
2023-02-03T00:57:12.386Z,25.16
2023-02-03T00:57:22.380Z,25.17
2023-02-03T00:57:32.396Z,25.17
2023-02-03T00:57:42.398Z,25.17
2023-02-03T00:57:52.410Z,25.17
2023-02-03T00:58:02.426Z,25.16
2023-02-03T00:58:12.425Z,25.16
2023-02-03T00:58:22.424Z,25.16
2023-02-03T00:58:32.461Z,25.15
2023-02-03T00:58:42.473Z,25.15
2023-02-03T00:58:52.475Z,25.15
2023-02-03T00:59:02.595Z,25.15
2023-02-03T00:59:12.594Z,25.13
2023-02-03T00:59:22.719Z,25.14
2023-02-03T00:59:32.867Z,25.14
2023-02-03T00:59:42.856Z,25.15
2023-02-03T00:59:52.899Z,25.15
2023-02-03T01:00:02.913Z,25.14
2023-02-03T01:00:12.907Z,25.14
2023-02-03T01:00:23.101Z,25.14
2023-02-03T01:00:33.116Z,25.14
2023-02-03T01:00:43.113Z,25.13
2023-02-03T01:00:53.126Z,25.15
2023-02-03T01:01:03.253Z,25.14
2023-02-03T01:01:13.471Z,25.15
2023-02-03T01:01:23.556Z,25.15
2023-02-03T01:01:33.651Z,25.15
2023-02-03T01:01:43.979Z,25.16
2023-02-03T01:01:54.067Z,25.16
2023-02-03T01:02:04.171Z,25.15
2023-02-03T01:02:14.109Z,25.15
2023-02-03T01:02:24.147Z,25.15
2023-02-03T01:02:34.345Z,25.15
2023-02-03T01:02:44.357Z,25.16
2023-02-03T01:02:54.772Z,25.15
2023-02-03T01:03:04.410Z,25.15
2023-02-03T01:03:14.455Z,25.14
2023-02-03T01:03:24.726Z,25.14
2023-02-03T01:03:34.751Z,25.14
2023-02-03T01:03:44.770Z,25.14
2023-02-03T01:03:54.803Z,25.13
2023-02-03T01:04:04.838Z,25.14
2023-02-03T01:04:14.843Z,25.13
2023-02-03T01:04:24.846Z,25.13
2023-02-03T01:04:34.863Z,25.13
2023-02-03T01:04:44.872Z,25.13
2023-02-03T01:04:54.872Z,25.13
2023-02-03T01:05:04.884Z,25.13
2023-02-03T01:05:14.953Z,25.12
2023-02-03T01:05:24.940Z,25.11
2023-02-03T01:05:34.952Z,25.12
2023-02-03T01:05:44.960Z,25.11
2023-02-03T01:05:54.973Z,25.10
2023-02-03T01:06:04.981Z,25.10
2023-02-03T01:06:15.028Z,25.10
2023-02-03T01:06:25.029Z,25.10
2023-02-03T01:06:35.059Z,25.11
2023-02-03T01:06:45.057Z,25.11
2023-02-03T01:06:55.065Z,25.10
2023-02-03T01:07:05.189Z,25.10
2023-02-03T01:07:15.187Z,25.10
2023-02-03T01:07:25.449Z,25.09
2023-02-03T01:07:35.459Z,25.08
2023-02-03T01:07:45.471Z,25.08
2023-02-03T01:07:55.474Z,25.08
2023-02-03T01:08:05.615Z,25.08
2023-02-03T01:08:15.613Z,25.08
2023-02-03T01:08:25.622Z,25.07
2023-02-03T01:08:35.629Z,25.07
2023-02-03T01:08:45.652Z,25.06
2023-02-03T01:08:55.650Z,25.07
2023-02-03T01:09:05.917Z,25.06
2023-02-03T01:09:15.913Z,25.05
2023-02-03T01:09:25.928Z,25.06
2023-02-03T01:09:35.918Z,25.06
2023-02-03T01:09:46.047Z,25.06
2023-02-03T01:09:56.045Z,25.06
2023-02-03T01:10:06.052Z,25.06
2023-02-03T01:10:16.068Z,25.05
2023-02-03T01:10:26.458Z,25.05
2023-02-03T01:10:36.162Z,25.06
2023-02-03T01:10:46.322Z,25.05
2023-02-03T01:10:56.323Z,25.05
2023-02-03T01:11:06.449Z,25.05
2023-02-03T01:11:16.706Z,25.04
2023-02-03T01:11:26.854Z,25.04
2023-02-03T01:11:36.853Z,25.04
2023-02-03T01:11:47.128Z,25.04
2023-02-03T01:11:57.131Z,25.04
2023-02-03T01:12:07.280Z,25.03
2023-02-03T01:12:17.553Z,25.02
2023-02-03T01:12:27.528Z,25.01
2023-02-03T01:12:37.532Z,25.01
2023-02-03T01:12:47.539Z,25.01
2023-02-03T01:12:57.539Z,25.00
2023-02-03T01:13:07.561Z,25.00
2023-02-03T01:13:17.576Z,25.01
2023-02-03T01:13:27.600Z,25.00
2023-02-03T01:13:37.601Z,25.00
2023-02-03T01:13:47.614Z,25.01
2023-02-03T01:13:57.622Z,25.01
2023-02-03T01:14:07.635Z,25.01
2023-02-03T01:14:17.630Z,25.02
2023-02-03T01:14:27.664Z,25.01
2023-02-03T01:14:37.668Z,25.01
2023-02-03T01:14:47.671Z,25.00
2023-02-03T01:14:57.786Z,25.00
2023-02-03T01:15:07.786Z,25.00
2023-02-03T01:15:17.795Z,24.99
2023-02-03T01:15:27.797Z,24.99
2023-02-03T01:15:37.837Z,24.99
2023-02-03T01:15:47.920Z,24.99
2023-02-03T01:15:57.972Z,24.99
2023-02-03T01:16:08.091Z,24.99
2023-02-03T01:16:18.028Z,24.98
2023-02-03T01:16:28.738Z,24.97
2023-02-03T01:16:38.248Z,24.98
2023-02-03T01:16:48.287Z,24.98
2023-02-03T01:16:58.233Z,24.99
2023-02-03T01:17:08.235Z,24.98
2023-02-03T01:17:18.246Z,24.98
2023-02-03T01:17:28.245Z,24.98
2023-02-03T01:17:38.248Z,24.98
2023-02-03T01:17:48.374Z,24.97
2023-02-03T01:17:58.404Z,24.97
2023-02-03T01:18:08.411Z,24.97
2023-02-03T01:18:18.411Z,24.97
2023-02-03T01:18:28.416Z,24.96
2023-02-03T01:18:38.674Z,24.96
2023-02-03T01:18:48.687Z,24.96
2023-02-03T01:18:58.727Z,24.96
2023-02-03T01:19:08.732Z,24.96
2023-02-03T01:19:18.733Z,24.95
2023-02-03T01:19:28.739Z,24.95
2023-02-03T01:19:38.749Z,24.95
2023-02-03T01:19:48.768Z,24.95
2023-02-03T01:19:58.793Z,24.95
2023-02-03T01:20:08.783Z,24.94
2023-02-03T01:20:18.802Z,24.94
2023-02-03T01:20:29.194Z,24.94
2023-02-03T01:20:38.914Z,24.93
2023-02-03T01:20:48.916Z,24.93
2023-02-03T01:20:59.046Z,24.94
2023-02-03T01:21:09.051Z,24.94
2023-02-03T01:21:19.189Z,24.94
2023-02-03T01:21:29.333Z,24.95
2023-02-03T01:21:39.329Z,24.94
2023-02-03T01:21:49.338Z,24.94
2023-02-03T01:21:59.731Z,24.95
2023-02-03T01:22:09.732Z,24.96
2023-02-03T01:22:19.751Z,24.96
2023-02-03T01:22:29.755Z,24.95
2023-02-03T01:22:39.774Z,24.95
2023-02-03T01:22:49.772Z,24.94
2023-02-03T01:22:59.807Z,24.94
2023-02-03T01:23:09.833Z,24.94
2023-02-03T01:23:19.964Z,24.95
2023-02-03T01:23:29.995Z,24.95
2023-02-03T01:23:40.265Z,24.95
2023-02-03T01:23:50.290Z,24.96
2023-02-03T01:24:00.282Z,24.95
2023-02-03T01:24:10.302Z,24.96
2023-02-03T01:24:20.304Z,24.95
2023-02-03T01:24:30.309Z,24.95
2023-02-03T01:24:40.331Z,24.95
2023-02-03T01:24:50.337Z,24.95
2023-02-03T01:25:00.471Z,24.95
2023-02-03T01:25:10.494Z,24.94
2023-02-03T01:25:20.749Z,24.94
2023-02-03T01:25:30.747Z,24.94
2023-02-03T01:25:40.760Z,24.94
2023-02-03T01:25:50.754Z,24.93
2023-02-03T01:26:00.764Z,24.93
2023-02-03T01:26:10.775Z,24.93
2023-02-03T01:26:20.893Z,24.93
2023-02-03T01:26:30.901Z,24.92
2023-02-03T01:26:41.027Z,24.92
2023-02-03T01:26:51.040Z,24.92
2023-02-03T01:27:01.158Z,24.91
2023-02-03T01:27:11.160Z,24.91
2023-02-03T01:27:21.195Z,24.91
2023-02-03T01:27:31.181Z,24.90
2023-02-03T01:27:41.326Z,24.89
2023-02-03T01:27:51.425Z,24.89
2023-02-03T01:28:01.500Z,24.88
2023-02-03T01:28:11.617Z,24.88
2023-02-03T01:28:21.558Z,24.88
2023-02-03T01:28:31.567Z,24.88
2023-02-03T01:28:41.707Z,24.88
2023-02-03T01:28:51.748Z,24.87
2023-02-03T01:29:01.751Z,24.86
2023-02-03T01:29:11.765Z,24.86
2023-02-03T01:29:21.775Z,24.85
2023-02-03T01:29:31.785Z,24.85
2023-02-03T01:29:41.780Z,24.84
2023-02-03T01:29:51.795Z,24.83
2023-02-03T01:30:01.820Z,24.83
2023-02-03T01:30:11.821Z,24.84
2023-02-03T01:30:21.826Z,24.83
2023-02-03T01:30:31.926Z,24.83
2023-02-03T01:30:42.014Z,24.83
2023-02-03T01:30:52.206Z,24.82
2023-02-03T01:31:02.310Z,24.81
2023-02-03T01:31:12.351Z,24.81
2023-02-03T01:31:22.433Z,24.81
2023-02-03T01:31:32.773Z,24.80
2023-02-03T01:31:42.886Z,24.81
2023-02-03T01:31:52.968Z,24.80
2023-02-03T01:32:03.175Z,24.80
2023-02-03T01:32:13.097Z,24.79
2023-02-03T01:32:23.102Z,24.79
2023-02-03T01:32:33.091Z,24.79
2023-02-03T01:32:43.225Z,24.79
2023-02-03T01:32:53.231Z,24.78
2023-02-03T01:33:03.250Z,24.78
2023-02-03T01:33:13.249Z,24.78
2023-02-03T01:33:23.265Z,24.78
2023-02-03T01:33:33.266Z,24.78
2023-02-03T01:33:43.530Z,24.77
2023-02-03T01:33:53.528Z,24.77
2023-02-03T01:34:03.550Z,24.76
2023-02-03T01:34:13.545Z,24.76
2023-02-03T01:34:23.563Z,24.76
2023-02-03T01:34:33.569Z,24.77
2023-02-03T01:34:43.575Z,24.76
2023-02-03T01:34:53.592Z,24.76
2023-02-03T01:35:03.716Z,24.76
2023-02-03T01:35:13.720Z,24.76
2023-02-03T01:35:23.986Z,24.75
2023-02-03T01:35:33.985Z,24.76
2023-02-03T01:35:44.106Z,24.77
2023-02-03T01:35:54.368Z,24.76
2023-02-03T01:36:04.374Z,24.75
2023-02-03T01:36:14.370Z,24.75
2023-02-03T01:36:24.754Z,24.75
2023-02-03T01:36:34.755Z,24.75
2023-02-03T01:36:44.770Z,24.75
2023-02-03T01:36:54.807Z,24.75
2023-02-03T01:37:04.798Z,24.74
2023-02-03T01:37:14.801Z,24.74
2023-02-03T01:37:24.816Z,24.74
2023-02-03T01:37:34.812Z,24.74
2023-02-03T01:37:44.826Z,24.73
2023-02-03T01:37:54.854Z,24.74
2023-02-03T01:38:04.853Z,24.74
2023-02-03T01:38:14.853Z,24.73
2023-02-03T01:38:24.864Z,24.72
2023-02-03T01:38:34.869Z,24.72
2023-02-03T01:38:44.887Z,24.72
2023-02-03T01:38:54.892Z,24.72
2023-02-03T01:39:04.903Z,24.72
2023-02-03T01:39:14.913Z,24.72
2023-02-03T01:39:24.931Z,24.72
2023-02-03T01:39:34.963Z,24.72
2023-02-03T01:39:44.946Z,24.71
2023-02-03T01:39:54.962Z,24.71
2023-02-03T01:40:05.043Z,24.71
2023-02-03T01:40:15.084Z,24.71
2023-02-03T01:40:25.586Z,24.70
2023-02-03T01:40:35.089Z,24.69
2023-02-03T01:40:45.121Z,24.69
2023-02-03T01:40:55.127Z,24.69
2023-02-03T01:41:05.120Z,24.70
2023-02-03T01:41:15.124Z,24.69
2023-02-03T01:41:25.134Z,24.69
2023-02-03T01:41:35.144Z,24.69
2023-02-03T01:41:45.158Z,24.69
2023-02-03T01:41:55.165Z,24.68
2023-02-03T01:42:05.182Z,24.69
2023-02-03T01:42:15.185Z,24.69
2023-02-03T01:42:25.244Z,24.68
2023-02-03T01:42:35.256Z,24.68
2023-02-03T01:42:45.252Z,24.68
2023-02-03T01:42:55.270Z,24.68
2023-02-03T01:43:05.284Z,24.68
2023-02-03T01:43:15.294Z,24.68
2023-02-03T01:43:25.291Z,24.68
2023-02-03T01:43:35.300Z,24.68
2023-02-03T01:43:45.432Z,24.67
2023-02-03T01:43:55.421Z,24.68
2023-02-03T01:44:05.682Z,24.68
2023-02-03T01:44:15.686Z,24.68
2023-02-03T01:44:25.806Z,24.67
2023-02-03T01:44:36.081Z,24.67
2023-02-03T01:44:46.085Z,24.67
2023-02-03T01:44:56.099Z,24.67
2023-02-03T01:45:06.119Z,24.66
2023-02-03T01:45:16.130Z,24.66
2023-02-03T01:45:26.239Z,24.66
2023-02-03T01:45:36.253Z,24.65
2023-02-03T01:45:46.314Z,24.66
2023-02-03T01:45:56.361Z,24.66
2023-02-03T01:46:06.457Z,24.66
2023-02-03T01:46:16.780Z,24.65
2023-02-03T01:46:26.844Z,24.65
2023-02-03T01:46:36.859Z,24.64
2023-02-03T01:46:47.253Z,24.65
2023-02-03T01:46:57.268Z,24.65
2023-02-03T01:47:07.285Z,24.64
2023-02-03T01:47:17.320Z,24.64
2023-02-03T01:47:27.305Z,24.65
2023-02-03T01:47:37.308Z,24.65
2023-02-03T01:47:47.317Z,24.64
2023-02-03T01:47:57.324Z,24.64
2023-02-03T01:48:07.329Z,24.64
2023-02-03T01:48:17.341Z,24.64
2023-02-03T01:48:27.366Z,24.64
2023-02-03T01:48:37.376Z,24.64
2023-02-03T01:48:47.372Z,24.63
2023-02-03T01:48:57.383Z,24.64
2023-02-03T01:49:07.404Z,24.63
2023-02-03T01:49:17.408Z,24.63
2023-02-03T01:49:27.410Z,24.63
2023-02-03T01:49:37.427Z,24.63
2023-02-03T01:49:47.444Z,24.63
2023-02-03T01:49:57.450Z,24.62
2023-02-03T01:50:07.478Z,24.63
2023-02-03T01:50:17.480Z,24.63
2023-02-03T01:50:27.993Z,24.63
2023-02-03T01:50:37.644Z,24.63
2023-02-03T01:50:47.924Z,24.63
2023-02-03T01:50:57.940Z,24.62
2023-02-03T01:51:08.065Z,24.63
2023-02-03T01:51:18.347Z,24.63
2023-02-03T01:51:28.352Z,24.62
2023-02-03T01:51:38.355Z,24.62
2023-02-03T01:51:48.737Z,24.62
2023-02-03T01:51:58.772Z,24.61
2023-02-03T01:52:08.758Z,24.61
2023-02-03T01:52:18.765Z,24.61
2023-02-03T01:52:28.781Z,24.61
2023-02-03T01:52:38.767Z,24.62
2023-02-03T01:52:48.777Z,24.61
2023-02-03T01:52:58.779Z,24.61
2023-02-03T01:53:08.787Z,24.60
2023-02-03T01:53:18.789Z,24.61
2023-02-03T01:53:28.801Z,24.61
2023-02-03T01:53:38.803Z,24.60
2023-02-03T01:53:48.803Z,24.60
2023-02-03T01:53:58.810Z,24.60
2023-02-03T01:54:08.823Z,24.59
2023-02-03T01:54:18.838Z,24.60
2023-02-03T01:54:28.845Z,24.59
2023-02-03T01:54:38.851Z,24.59
2023-02-03T01:54:48.860Z,24.60
2023-02-03T01:54:58.868Z,24.60
2023-02-03T01:55:08.888Z,24.60
2023-02-03T01:55:18.890Z,24.59
2023-02-03T01:55:29.019Z,24.59
2023-02-03T01:55:39.053Z,24.59
2023-02-03T01:55:49.326Z,24.59
2023-02-03T01:55:59.342Z,24.58
2023-02-03T01:56:09.344Z,24.59
2023-02-03T01:56:19.351Z,24.59
2023-02-03T01:56:29.363Z,24.58
2023-02-03T01:56:39.377Z,24.58
2023-02-03T01:56:49.391Z,24.58
2023-02-03T01:56:59.396Z,24.58
2023-02-03T01:57:09.402Z,24.58
2023-02-03T01:57:19.421Z,24.57
2023-02-03T01:57:29.447Z,24.58
2023-02-03T01:57:39.429Z,24.57
2023-02-03T01:57:49.445Z,24.57
2023-02-03T01:57:59.452Z,24.57
2023-02-03T01:58:09.460Z,24.57
2023-02-03T01:58:19.471Z,24.57
2023-02-03T01:58:29.485Z,24.57
2023-02-03T01:58:39.510Z,24.56
2023-02-03T01:58:49.529Z,24.56
2023-02-03T01:58:59.535Z,24.57
2023-02-03T01:59:09.529Z,24.57
2023-02-03T01:59:19.538Z,24.57
2023-02-03T01:59:29.536Z,24.57
2023-02-03T01:59:39.547Z,24.56
2023-02-03T01:59:49.556Z,24.56
2023-02-03T01:59:59.568Z,24.55
2023-02-03T02:00:09.727Z,24.55
2023-02-03T02:00:19.719Z,24.55
2023-02-03T02:00:29.951Z,24.55
2023-02-03T02:00:39.750Z,24.56
2023-02-03T02:00:49.800Z,24.55
2023-02-03T02:01:00.083Z,24.55
2023-02-03T02:01:10.130Z,24.56
2023-02-03T02:01:20.157Z,24.55
2023-02-03T02:01:30.202Z,24.56
2023-02-03T02:01:40.266Z,24.55
2023-02-03T02:01:50.308Z,24.55
2023-02-03T02:02:00.325Z,24.54
2023-02-03T02:02:10.504Z,24.54
2023-02-03T02:02:20.584Z,24.54
2023-02-03T02:02:30.740Z,24.55
2023-02-03T02:02:41.045Z,24.54
2023-02-03T02:02:51.096Z,24.54
2023-02-03T02:03:01.074Z,24.54
2023-02-03T02:03:11.330Z,24.54
2023-02-03T02:03:21.345Z,24.54
2023-02-03T02:03:31.355Z,24.54
2023-02-03T02:03:41.367Z,24.53
2023-02-03T02:03:51.397Z,24.54
2023-02-03T02:04:01.379Z,24.54
2023-02-03T02:04:11.405Z,24.53
2023-02-03T02:04:21.404Z,24.54
2023-02-03T02:04:31.407Z,24.54
2023-02-03T02:04:41.423Z,24.54
2023-02-03T02:04:51.437Z,24.54
2023-02-03T02:05:01.453Z,24.54
2023-02-03T02:05:11.460Z,24.54
2023-02-03T02:05:21.470Z,24.53
2023-02-03T02:05:31.484Z,24.53
2023-02-03T02:05:41.473Z,24.53
2023-02-03T02:05:51.480Z,24.53
2023-02-03T02:06:01.492Z,24.53
2023-02-03T02:06:11.515Z,24.53
2023-02-03T02:06:21.523Z,24.53
2023-02-03T02:06:31.520Z,24.53
2023-02-03T02:06:41.536Z,24.52
2023-02-03T02:06:51.543Z,24.52
2023-02-03T02:07:01.554Z,24.52
2023-02-03T02:07:11.585Z,24.53
2023-02-03T02:07:21.570Z,24.52
2023-02-03T02:07:31.581Z,24.52
2023-02-03T02:07:41.596Z,24.52
2023-02-03T02:07:51.630Z,24.52
2023-02-03T02:08:01.649Z,24.52
2023-02-03T02:08:11.651Z,24.52
2023-02-03T02:08:21.671Z,24.51
2023-02-03T02:08:31.685Z,24.52
2023-02-03T02:08:41.827Z,24.52
2023-02-03T02:08:51.830Z,24.52
2023-02-03T02:09:01.841Z,24.52
2023-02-03T02:09:11.831Z,24.52
2023-02-03T02:09:21.855Z,24.52